Terminal Aerodrome Forecast
Issued by NWS Upton, NY

Home | Current Version | Previous Version | Text Only | Print | Product List | Glossary On
Versions: 1 2 3 4 5 6 7 8 9 10 11 12 13 14 15 16 17 18 19 20 21 22 23 24 25 26 27 28 29 30 31 32 33 34 35
000
FTUS41 KOKX 291120
TAFJFK
TAF
KJFK 291120Z 2912/3018 34014KT P6SM SCT050 BKN250
     FM291400 34012KT P6SM SCT250
     FM292000 25010KT P6SM SCT250
     FM292300 20009KT P6SM SCT250
     FM300800 22010KT P6SM OVC100
     FM301100 22014KT P6SM OVC050=

USA.gov is the U.S. government's official web portal to all federal, state and local government web resources and services.